• Join FlightAware (Why Join?)
  • Login
  • US Flag 
01:41AM EDT


 

Airport Tracker/Info


-or-


 

Live Flight TrackerFlight Track Log ✈ N244A ✈ 28-Oct-2013 ✈ KTEB - KPBI

Flight Track Log - Related Links

Times and Time Zones

All times are in EDT time to prevent confusion due to time zone crossing. See the N244A flight status page for this flight to view local times or setup timezone preferences in your user account.

Time Position Orientation Groundspeed Altitude Reporting Facility
EDT Latitude Longitude Course Direction KTS MPH feet Rate Location/Type
04:04PM 40.8333 -74.1000 237° Southwest 173 199 1,300  Level New York TRACON
04:05PM 40.8000 -74.1667 237° Southwest 211 243 2,100 1,620 Climbing New York TRACON
04:06PM 40.7333 -74.2000 201° Southwest 278 320 4,600 1,980 Climbing New York TRACON
04:07PM 40.6667 -74.1833 169° South 274 315 6,100 2,760 Climbing New York TRACON
04:08PM 40.5833 -74.2333 205° Southwest 280 322 10,500 3,900 Climbing New York TRACON
04:09PM 40.5167 -74.2667 201° Southwest 274 315 13,900 1,500 Climbing New York TRACON
04:11PM 40.2856 -74.1747 163° South 398 458 15,500 900 Climbing New York Center
04:13PM 40.1161 -74.2189 191° South 400 460 17,500 1,500 Climbing Washington Center
04:14PM 40.0061 -74.2561 195° South 406 467 19,400 1,560 Climbing Washington Center
04:15PM 39.9153 -74.3364 214° Southwest 406 467 20,700 900 Climbing Washington Center
04:16PM 39.8267 -74.4244 217° Southwest 400 460 21,200 840 Climbing Washington Center
04:17PM 39.7400 -74.5283 223° Southwest 413 475 22,400 1,500 Climbing Washington Center
04:18PM 39.6658 -74.6319 227° Southwest 412 474 24,300 1,860 Climbing Washington Center
04:19PM 39.5894 -74.7325 225° Southwest 406 467 26,200 1,560 Climbing Washington Center
04:20PM 39.5153 -74.8331 226° Southwest 401 461 27,500 840 Climbing Washington Center
04:21PM 39.4469 -74.9225 225° Southwest 401 461 27,900 300 Climbing Washington Center
04:22PM 39.3642 -75.0306 225° Southwest 408 470 28,200 780 Climbing Washington Center
04:23PM 39.2731 -75.1250 219° Southwest 419 482 29,500 1,620 Climbing Washington Center
04:24PM 39.1628 -75.1767 200° South 423 487 31,500 1,980 Climbing Washington Center
04:25PM 39.0544 -75.2175 196° South 410 472 33,400 1,500 Climbing Washington Center
04:26PM 38.9733 -75.2500 197° South 405 466 34,600 780 Climbing Washington Center
04:27PM 38.8483 -75.3039 199° South 400 460 35,000 600 Climbing Washington Center
04:28PM 38.7400 -75.3494 198° South 407 468 35,800 480 Climbing Washington Center
04:29PM 38.6275 -75.3897 196° South 407 468 36,000 60 Climbing Washington Center
04:30PM 38.5128 -75.4431 200° South 425 489 36,000  Level Washington Center
04:31PM 38.3942 -75.4858 196° South 437 503 36,000  Level Washington Center
04:32PM 38.2858 -75.5600 208° Southwest 444 511 36,000 360 Level Washington Center
04:33PM 38.1878 -75.6550 217° Southwest 444 511 36,800 960 Climbing Washington Center
04:34PM 38.0958 -75.7447 218° Southwest 444 511 38,000 540 Climbing Washington Center
04:35PM 38.0061 -75.8289 216° Southwest 428 493 38,000  Level Washington Center
04:36PM 37.9100 -75.9156 215° Southwest 423 487 38,000  Level Washington Center
04:37PM 37.8158 -76.0072 218° Southwest 428 493 38,000  Level Washington Center
04:38PM 37.7092 -76.1064 216° Southwest 433 498 38,000  Level Washington Center
04:39PM 37.6108 -76.1633 205° Southwest 439 505 38,000  Level Washington Center
04:40PM 37.5019 -76.2306 206° Southwest 439 505 38,000  Level Washington Center
04:41PM 37.3911 -76.3003 207° Southwest 439 505 38,000  Level Washington Center
04:42PM 37.2822 -76.3697 207° Southwest 444 511 38,000  Level Washington Center
04:43PM 37.1711 -76.4417 207° Southwest 444 511 38,000  Level Washington Center
04:44PM 37.0622 -76.5106 207° Southwest 444 511 38,000  Level Washington Center
04:45PM 36.9511 -76.5794 206° Southwest 444 511 38,000  Level Washington Center
04:46PM 36.8397 -76.6533 208° Southwest 449 517 38,000  Level Washington Center
04:47PM 36.7267 -76.7217 206° Southwest 454 522 38,000 -60 Level Washington Center
04:48PM 36.6069 -76.8003 208° Southwest 454 522 37,900  Descending Washington Center
04:49PM 36.5083 -76.8608 206° Southwest 449 517 38,000  Climbing Washington Center
04:50PM 36.3883 -76.9389 208° Southwest 449 517 37,900  Descending Washington Center
04:51PM 36.2769 -77.0064 206° Southwest 449 517 38,000  Climbing Washington Center
04:52PM 36.1678 -77.0714 206° Southwest 449 517 38,000 -60 Level Washington Center
04:53PM 36.0794 -77.1264 207° Southwest 449 517 37,900  Descending Washington Center
04:54PM 35.9658 -77.1958 206° Southwest 436 502 38,000  Climbing Washington Center
04:55PM 35.8564 -77.2631 206° Southwest 436 502 38,000  Level Washington Center
04:56PM 35.7428 -77.3297 205° Southwest 436 502 38,000  Level Washington Center
04:57PM 35.6356 -77.3964 207° Southwest 436 502 38,000  Level Washington Center
04:58PM 35.5258 -77.4653 207° Southwest 436 502 38,000  Level Washington Center
04:59PM 35.4142 -77.5314 206° Southwest 436 502 38,000  Level Washington Center
05:00PM 35.3128 -77.6181 215° Southwest 446 513 38,000  Level Washington Center
05:01PM 35.2233 -77.7125 221° Southwest 446 513 38,000  Level Washington Center
05:02PM 35.1278 -77.8117 220° Southwest 441 507 38,000  Level Washington Center
05:03PM 35.0342 -77.9053 219° Southwest 446 513 38,000  Level Washington Center
05:04PM 34.9319 -78.0114 220° Southwest 446 513 38,000  Level Washington Center
05:05PM 34.8381 -78.1072 220° Southwest 440 506 38,000 -60 Level Washington Center
05:06PM 34.7547 -78.1983 222° Southwest 440 506 37,900 -60 Descending Washington Center
05:07PM 34.5858 -78.3736 221° Southwest 426 490 37,900  Level Jacksonville Center
05:08PM 34.4831 -78.4744 219° Southwest 436 502 38,000  Climbing Jacksonville Center
05:09PM 34.3964 -78.5644 221° Southwest 441 507 37,900 -60 Descending Jacksonville Center
05:10PM 34.3017 -78.6597 220° Southwest 446 513 37,900  Level Jacksonville Center
05:11PM 34.1944 -78.7653 219° Southwest 446 513 37,900  Level Jacksonville Center
05:12PM 34.0994 -78.8600 220° Southwest 446 513 37,900  Level Jacksonville Center
05:13PM 34.0044 -78.9547 220° Southwest 446 513 38,000  Climbing Jacksonville Center
05:14PM 33.9072 -79.0517 220° Southwest 446 513 37,900 -60 Descending Jacksonville Center
05:15PM 33.8100 -79.1433 218° Southwest 451 519 37,900  Level Jacksonville Center
05:16PM 33.7125 -79.2400 220° Southwest 456 525 37,900  Level Jacksonville Center
05:17PM 33.6214 -79.3308 220° Southwest 451 519 37,900  Level Jacksonville Center
05:18PM 33.5217 -79.4247 218° Southwest 451 519 37,900  Level Jacksonville Center
05:19PM 33.4261 -79.5206 220° Southwest 456 525 37,900  Level Jacksonville Center
05:20PM 33.3306 -79.6161 220° Southwest 456 525 37,900  Level Jacksonville Center
05:21PM 33.2431 -79.7011 219° Southwest 456 525 37,900  Level Jacksonville Center
05:22PM 33.1431 -79.7967 219° Southwest 456 525 37,900  Level Jacksonville Center
05:23PM 33.0453 -79.8892 218° Southwest 456 525 37,900  Level Jacksonville Center
05:24PM 32.9453 -79.9842 219° Southwest 461 531 37,900  Level Jacksonville Center
05:25PM 32.8431 -80.0814 219° Southwest 461 531 37,900  Level Jacksonville Center
05:26PM 32.7300 -80.1589 210° Southwest 467 537 37,900  Level Jacksonville Center
05:27PM 32.6189 -80.2411 212° Southwest 479 551 37,900  Level Jacksonville Center
05:28PM 32.5100 -80.3231 212° Southwest 474 545 37,900  Level Jacksonville Center
05:29PM 32.3967 -80.4050 211° Southwest 474 545 37,900  Level Jacksonville Center
05:30PM 32.2878 -80.4867 212° Southwest 469 540 37,900  Level Jacksonville Center
05:31PM 32.1719 -80.5536 206° Southwest 469 540 37,900  Level Jacksonville Center
05:32PM 32.0333 -80.6086 199° South 474 545 38,000  Climbing Jacksonville Center
05:33PM 31.9067 -80.6558 198° South 485 558 38,000  Level Jacksonville Center
05:34PM 31.7928 -80.7025 199° South 485 558 38,000  Level Jacksonville Center
05:35PM 31.6558 -80.7544 198° South 479 551 38,000  Level Jacksonville Center
05:36PM 31.5439 -80.8011 200° South 479 551 38,000  Level Jacksonville Center
05:37PM 31.4069 -80.8528 198° South 479 551 38,000 -60 Level Jacksonville Center
05:38PM 31.2886 -80.9039 200° South 484 557 37,900 -60 Descending Jacksonville Center
05:39PM 31.1642 -80.9503 198° South 484 557 37,900  Level Jacksonville Center
05:40PM 31.0375 -80.9989 198° South 484 557 38,000  Climbing Jacksonville Center
05:41PM 30.9108 -81.0403 196° South 479 551 38,000  Level Jacksonville Center
05:42PM 30.7708 -81.0478 183° South 492 566 38,000 -60 Level Jacksonville Center
05:43PM 30.6353 -81.0506 181° South 492 566 37,900 -60 Descending Jacksonville Center
05:44PM 30.4975 -81.0578 183° South 492 566 37,900  Level Jacksonville Center
05:45PM 30.3556 -81.0631 182° South 498 573 37,900  Level Jacksonville Center
05:46PM 30.2181 -81.0706 183° South 498 573 37,900  Level Jacksonville Center
05:47PM 30.0783 -81.0756 182° South 498 573 38,000  Climbing Jacksonville Center
05:48PM 29.9358 -81.0422 169° South 504 580 37,900 -60 Descending Jacksonville Center
05:49PM 29.7931 -80.9994 165° South 517 595 37,900  Level Jacksonville Center
05:50PM 29.6422 -80.9547 166° South 522 601 38,000 -120 Climbing Jacksonville Center
05:51PM 29.4997 -80.9144 166° South 522 601 37,700 -420 Descending Jacksonville Center
05:52PM 29.3611 -80.8697 164° South 522 601 37,200 -420 Descending Jacksonville Center
05:53PM 29.2261 -80.8344 167° South 524 603 36,900 -420 Descending Miami Center
05:54PM 29.0978 -80.8011 167° South 509 586 36,400 -420 Descending Miami Center
05:55PM 28.9569 -80.7583 165° South 516 594 36,100 -240 Descending Miami Center
05:56PM 28.8225 -80.7181 165° South 511 588 36,000 -60 Descending Miami Center
05:57PM 28.6822 -80.6636 161° South 517 595 36,000 -540 Level Miami Center
05:58PM 28.5428 -80.5642 148° Southeast 523 602 35,000 -1,620 Descending Miami Center
05:59PM 28.4178 -80.4753 148° Southeast 535 616 32,800 -3,120 Descending Miami Center
06:00PM 28.2967 -80.3958 150° Southeast 524 603 28,800 -3,300 Descending Miami Center
06:01PM 28.1786 -80.3639 167° South 490 564 26,200 -2,700 Descending Miami Center
06:02PM 28.0436 -80.3314 168° South 484 557 23,500 -2,820 Descending Miami Center
06:03PM 27.8964 -80.2894 166° South 496 571 20,600 -2,700 Descending Miami Center
06:04PM 27.7594 -80.2547 167° South 503 579 18,200 -2,400 Descending Miami Center
06:05PM 27.6392 -80.2253 168° South 482 555 15,800 -2,520 Descending Miami Center
06:06PM 27.5314 -80.1964 167° South 450 518 13,200 -2,640 Descending Miami Center
06:07PM 27.4172 -80.1628 165° South 436 502 10,600 -1,560 Descending Miami Center
06:08PM 27.3092 -80.1339 167° South 379 436 10,100 -300 Descending Miami Center
06:09PM 27.2303 -80.1200 171° South 319 367 10,000 -660 Descending Miami Center
06:10PM 27.1622 -80.0853 156° South 271 312 8,800 -1,440 Descending Miami Center
06:11PM 27.0939 -80.0508 156° South 283 326 7,200 -1,800 Descending Miami Center
06:12PM 27.0156 -80.0136 157° South 295 339 5,300 -1,620 Descending Miami Center
06:13PM 26.9364 -80.0000 171° South 295 339 4,000 -660 Descending Miami Center
06:14PM 26.8811 -80.0450 216° Southwest 241 277 4,000  Level Miami Center
06:15PM 26.8319 -80.0903 219° Southwest 241 277 4,000  Level Miami Center
06:17PM 26.7925 -80.2222 265° West  Level FlightAware Approximate
06:24PM 26.6832 -80.0956 110° East  Level Estimated
06:25PM 26.6832 -80.0956 110° East  Level Estimated
06:26PM 26.6832 -80.0956 110° East  Level Estimated
06:27PM 26.6832 -80.0956 110° East  Level Estimated
06:28PM 26.6832 -80.0956 110° East  Level Estimated
06:29PM 26.6832 -80.0956 110° East  Level Estimated
06:30PM 26.6832 -80.0956 110° East  Level Estimated
06:31PM 26.6832 -80.0956 110° East  Level Estimated
06:32PM 26.6832 -80.0956 110° East  Level Estimated